KTDZ

Details ICAO KTDZ
Name Metcalf Fld
Region United States
Timezone America/New_York (UTC-4.0)
Plans Departing 6
Arriving 2
Stats Elevation 622 ft / 190 m (AMSL)
Location 41.564688° -83.482203°
Runways 2
Magnetic Variation 7.085° W
Sunrise 2018-05-27 10:06:26 UTC / 2018-05-27 06:06:26 Local
Sunset 2018-05-28 00:58:40 UTC / 2018-05-27 20:58:40 Local
Advertisement - Login to hide

Runways

ID Width Length Bearing (true) Bearing (mag) Surface Threshold Offset Overrun Length
04 150 ft / 46 m 3,664 ft / 1,117 m 38.69° 45.77° Asphalt 0 ft / 0 m 0 ft / 0 m
14 100 ft / 30 m 5,826 ft / 1,776 m 134.09° 141.17° Asphalt 580 ft / 177 m 0 ft / 0 m
22 150 ft / 46 m 3,664 ft / 1,117 m 218.69° 225.77° Asphalt 90 ft / 27 m 0 ft / 0 m
32 100 ft / 30 m 5,826 ft / 1,776 m 314.10° 321.18° Asphalt 580 ft / 177 m 0 ft / 0 m

Map

Weather


0- 5 10 15 20 25 30 35+ Temperature / ° C

Clouds and Precipitation
Forecast for 2018-05-27 06:00 UTC. Updated 21 minutes ago

Ground ~20,000 ft ~40,000 ft Winds

METAR

KTDZ 270453Z AUTO 18003KT 10SM CLR 21/18 A2985 RMK AO2 SLP104 T02060183 402780194

TAF

Not found

Frequencies

Recorded 121.57 MHz ASOS
Clearance 125.60 MHz CLNC DEL
Unicom 123.05 MHz CTAF/UNICOM
Approach 126.10 MHz TOLEDO APP/DEP
Warning: Do not use this data for real-world aviation or navigation. No guarantee of current accuracy is given.